Time;durP1;ratioP1;P1;durP2;ratioP2;P2;SDS_P1;SDS_P2;PMS_P1;PMS_P2;Temp;Humidity;BMP_temperature;BMP_pressure;BME280_temperature;BME280_humidity;BME280_pressure;Samples;Min_cycle;Max_cycle;Signal;HPM_P1;HPM_P2
2021/12/28 00:00:14;;;;;;;;;0.00;0.00;;;;;;;;5028524;28;48111;-80
2021/12/28 00:02:41;;;;;;;;;0.00;0.00;;;;;;;;5026173;28;45897;-80
2021/12/28 00:05:08;;;;;;;;;1.00;0.00;;;;;;;;5023865;28;45610;-80
2021/12/28 00:07:34;;;;;;;;;0.00;0.00;;;;;;;;5019930;28;45559;-80
2021/12/28 00:09:59;;;;;;;;;0.00;0.00;;;;;;;;5028014;28;45536;-80
2021/12/28 00:12:24;;;;;;;;;0.00;0.00;;;;;;;;5027891;28;45563;-80
2021/12/28 00:15:02;;;;;;;;;1.00;0.00;;;;;;;;5031142;28;45462;-80
2021/12/28 00:20:12;;;;;;;;;0.00;0.00;;;;;;;;5028703;28;46163;-82
2021/12/28 00:22:37;;;;;;;;;0.00;0.00;;;;;;;;5024738;28;45657;-81
2021/12/28 00:25:04;;;;;;;;;0.00;0.00;;;;;;;;5027497;28;46734;-81
2021/12/28 00:27:29;;;;;;;;;0.00;0.00;;;;;;;;5029028;28;45719;-81
2021/12/28 00:29:54;;;;;;;;;0.00;0.00;;;;;;;;5026682;28;47312;-82
2021/12/28 00:32:20;;;;;;;;;0.00;0.00;;;;;;;;5029621;28;45560;-80
2021/12/28 00:34:45;;;;;;;;;0.00;0.00;;;;;;;;5028186;28;45649;-81
2021/12/28 00:37:10;;;;;;;;;0.00;0.00;;;;;;;;5028333;28;45395;-82
2021/12/28 00:39:36;;;;;;;;;0.00;0.00;;;;;;;;5027955;28;46269;-81
2021/12/28 00:42:01;;;;;;;;;0.00;0.00;;;;;;;;5030356;28;45630;-81
2021/12/28 00:44:26;;;;;;;;;0.00;0.00;;;;;;;;5029527;28;45559;-82
2021/12/28 00:46:51;;;;;;;;;0.00;0.00;;;;;;;;5029335;28;45518;-81
2021/12/28 00:49:17;;;;;;;;;0.00;0.00;;;;;;;;5031286;28;45966;-81
2021/12/28 00:51:42;;;;;;;;;0.00;0.00;;;;;;;;5032138;28;45569;-81
2021/12/28 00:54:07;;;;;;;;;0.00;0.00;;;;;;;;5032410;28;45533;-81
2021/12/28 00:56:32;;;;;;;;;0.00;0.00;;;;;;;;5034517;28;45406;-81
2021/12/28 00:58:57;;;;;;;;;0.00;0.00;;;;;;;;5033979;28;46731;-81
2021/12/28 01:01:23;;;;;;;;;0.00;0.00;;;;;;;;5033325;28;45708;-81
2021/12/28 01:03:48;;;;;;;;;0.75;0.00;;;;;;;;5033457;28;45443;-81
2021/12/28 01:06:13;;;;;;;;;0.00;0.00;;;;;;;;5033970;28;45391;-81
2021/12/28 01:08:38;;;;;;;;;0.00;0.00;;;;;;;;5035600;28;46341;-81
2021/12/28 01:11:05;;;;;;;;;0.00;0.00;;;;;;;;5022576;28;45435;-81
2021/12/28 01:13:31;;;;;;;;;0.00;0.00;;;;;;;;5032272;28;45636;-81
2021/12/28 01:15:56;;;;;;;;;0.00;0.00;;;;;;;;5033338;28;45522;-81
2021/12/28 01:18:22;;;;;;;;;0.25;0.00;;;;;;;;5033388;28;46195;-81
2021/12/28 01:20:47;;;;;;;;;0.00;0.00;;;;;;;;5033907;28;45456;-81
2021/12/28 01:23:13;;;;;;;;;0.00;0.00;;;;;;;;5032767;28;45455;-81
2021/12/28 01:25:38;;;;;;;;;0.00;0.00;;;;;;;;5033199;28;46413;-80
2021/12/28 01:28:04;;;;;;;;;0.00;0.00;;;;;;;;5031893;28;46431;-81
2021/12/28 01:30:29;;;;;;;;;0.00;0.00;;;;;;;;5033610;28;45604;-81
2021/12/28 01:32:58;;;;;;;;;0.00;0.00;;;;;;;;5036025;28;45691;-81
2021/12/28 01:35:24;;;;;;;;;0.00;0.00;;;;;;;;5031897;28;45585;-81
2021/12/28 01:37:49;;;;;;;;;0.00;0.00;;;;;;;;5033175;28;46239;-81
2021/12/28 01:40:16;;;;;;;;;0.00;0.00;;;;;;;;5031429;28;45269;-80
2021/12/28 01:42:54;;;;;;;;;0.00;0.00;;;;;;;;5033384;28;45489;-81
2021/12/28 01:45:28;;;;;;;;;0.00;0.00;;;;;;;;5025657;28;45626;-81
2021/12/28 01:47:54;;;;;;;;;0.00;0.00;;;;;;;;5034072;28;48686;-81
2021/12/28 01:50:19;;;;;;;;;0.00;0.00;;;;;;;;5032503;28;45735;-80
2021/12/28 01:52:44;;;;;;;;;0.00;0.00;;;;;;;;5032933;28;45463;-81
2021/12/28 01:55:09;;;;;;;;;0.00;0.00;;;;;;;;5032014;28;45539;-81
2021/12/28 01:57:35;;;;;;;;;0.00;0.00;;;;;;;;5032276;28;45454;-81
2021/12/28 02:00:00;;;;;;;;;0.00;0.00;;;;;;;;5032041;28;45784;-81
2021/12/28 02:02:25;;;;;;;;;0.00;0.00;;;;;;;;5048998;28;45501;-82
2021/12/28 02:04:50;;;;;;;;;0.00;0.00;;;;;;;;5033368;28;45481;-81
2021/12/28 02:07:16;;;;;;;;;0.00;0.00;;;;;;;;5032074;28;47149;-81
2021/12/28 02:09:41;;;;;;;;;0.00;0.00;;;;;;;;5030682;28;45703;-81
2021/12/28 02:12:06;;;;;;;;;0.00;0.00;;;;;;;;5033618;28;45518;-81
2021/12/28 02:14:32;;;;;;;;;0.00;0.00;;;;;;;;5033605;28;45499;-82
2021/12/28 02:16:57;;;;;;;;;0.00;0.00;;;;;;;;5032356;28;48334;-81
2021/12/28 02:19:22;;;;;;;;;0.00;0.00;;;;;;;;5030935;28;45530;-81
2021/12/28 02:21:47;;;;;;;;;0.00;0.00;;;;;;;;5031057;28;45601;-81
2021/12/28 02:24:12;;;;;;;;;0.00;0.00;;;;;;;;5033607;28;45474;-81
2021/12/28 02:26:38;;;;;;;;;2.33;0.00;;;;;;;;5033914;28;45501;-81
2021/12/28 02:29:05;;;;;;;;;0.00;0.00;;;;;;;;5030835;28;45440;-81
2021/12/28 02:31:30;;;;;;;;;0.00;0.00;;;;;;;;5030697;28;45709;-81
2021/12/28 02:33:56;;;;;;;;;0.00;0.00;;;;;;;;5032215;28;46228;-81
2021/12/28 02:36:21;;;;;;;;;0.00;0.00;;;;;;;;5031212;28;45500;-81
2021/12/28 02:38:47;;;;;;;;;0.00;0.00;;;;;;;;5032862;28;45509;-81
2021/12/28 02:41:12;;;;;;;;;0.00;0.00;;;;;;;;5031567;28;45721;-81
2021/12/28 02:43:39;;;;;;;;;0.00;0.00;;;;;;;;5022756;28;45483;-81
2021/12/28 02:46:05;;;;;;;;;0.00;0.00;;;;;;;;5029371;28;45664;-81
2021/12/28 02:48:32;;;;;;;;;0.00;0.00;;;;;;;;5031594;28;45442;-81
2021/12/28 02:51:05;;;;;;;;;0.50;0.00;;;;;;;;5033404;28;45766;-81
2021/12/28 02:53:30;;;;;;;;;0.00;0.00;;;;;;;;5029732;28;45657;-81
2021/12/28 02:55:55;;;;;;;;;1.00;0.00;;;;;;;;5028010;28;47157;-81
2021/12/28 02:58:24;;;;;;;;;0.00;0.00;;;;;;;;5030674;28;45410;-81
2021/12/28 03:00:54;;;;;;;;;1.00;0.00;;;;;;;;5030943;28;45590;-81
2021/12/28 03:03:24;;;;;;;;;0.00;0.00;;;;;;;;5030385;28;45309;-82
2021/12/28 03:05:50;;;;;;;;;0.00;0.00;;;;;;;;5032339;28;46422;-82
2021/12/28 03:08:16;;;;;;;;;0.75;0.00;;;;;;;;5031036;28;45508;-81
2021/12/28 03:10:42;;;;;;;;;2.50;0.00;;;;;;;;5030795;28;45556;-81
2021/12/28 03:13:15;;;;;;;;;0.00;0.00;;;;;;;;5030535;28;45518;-82
2021/12/28 03:15:40;;;;;;;;;0.00;0.00;;;;;;;;5031175;28;46615;-82
2021/12/28 03:18:05;;;;;;;;;0.25;0.00;;;;;;;;5032175;28;45858;-81
2021/12/28 03:20:31;;;;;;;;;2.00;0.00;;;;;;;;5031665;28;45478;-81
2021/12/28 03:22:56;;;;;;;;;0.33;0.00;;;;;;;;5031037;28;45471;-81
2021/12/28 03:25:21;;;;;;;;;0.00;0.00;;;;;;;;5030844;28;45507;-81
2021/12/28 03:27:46;;;;;;;;;1.00;0.00;;;;;;;;5031099;28;45377;-81
2021/12/28 03:30:13;;;;;;;;;0.00;0.00;;;;;;;;5030014;28;45453;-81
2021/12/28 03:32:39;;;;;;;;;0.00;0.00;;;;;;;;5033113;28;45541;-81
2021/12/28 03:35:05;;;;;;;;;0.00;0.00;;;;;;;;5030155;28;47550;-81
2021/12/28 03:37:31;;;;;;;;;0.25;0.00;;;;;;;;5030952;28;45428;-81
2021/12/28 03:39:56;;;;;;;;;0.00;0.00;;;;;;;;5030049;28;45573;-81
2021/12/28 03:42:22;;;;;;;;;0.00;0.00;;;;;;;;5029525;28;45627;-81
2021/12/28 03:44:47;;;;;;;;;0.00;0.00;;;;;;;;5032328;28;46210;-81
2021/12/28 03:47:12;;;;;;;;;0.00;0.00;;;;;;;;5030693;28;45586;-82
2021/12/28 03:49:37;;;;;;;;;0.50;0.50;;;;;;;;5030530;28;45534;-81
2021/12/28 03:52:03;;;;;;;;;1.00;0.00;;;;;;;;5026567;28;45482;-81
2021/12/28 03:54:28;;;;;;;;;1.00;0.00;;;;;;;;5030372;28;47189;-81
2021/12/28 03:56:53;;;;;;;;;0.00;0.00;;;;;;;;5028850;28;45624;-81
2021/12/28 03:59:19;;;;;;;;;1.00;0.00;;;;;;;;5027737;28;45447;-81
2021/12/28 04:01:44;;;;;;;;;0.00;0.00;;;;;;;;5029195;28;45638;-81
2021/12/28 04:04:09;;;;;;;;;0.00;0.00;;;;;;;;5029918;28;47513;-81
2021/12/28 04:06:35;;;;;;;;;0.00;0.00;;;;;;;;5029453;28;45430;-81
2021/12/28 04:09:03;;;;;;;;;0.00;0.00;;;;;;;;5032903;28;45533;-81
2021/12/28 04:11:28;;;;;;;;;1.00;0.00;;;;;;;;5061924;28;45478;-81
2021/12/28 04:13:55;;;;;;;;;0.00;0.00;;;;;;;;5029006;28;46082;-81
2021/12/28 04:16:21;;;;;;;;;2.50;0.00;;;;;;;;5028785;28;45834;-81
2021/12/28 04:18:46;;;;;;;;;1.00;0.00;;;;;;;;5028729;28;45594;-81
2021/12/28 04:21:12;;;;;;;;;0.00;0.00;;;;;;;;5029327;28;45597;-81
2021/12/28 04:23:38;;;;;;;;;0.75;0.00;;;;;;;;5030363;28;46341;-81
2021/12/28 04:26:03;;;;;;;;;0.00;0.00;;;;;;;;5032106;28;45445;-81
2021/12/28 04:28:29;;;;;;;;;0.33;0.00;;;;;;;;5031879;28;45737;-81
2021/12/28 04:30:54;;;;;;;;;0.00;0.00;;;;;;;;5033343;28;45911;-81
2021/12/28 04:33:20;;;;;;;;;0.00;0.00;;;;;;;;5033220;28;46313;-82
2021/12/28 04:35:45;;;;;;;;;0.50;0.00;;;;;;;;5035788;28;45376;-81
2021/12/28 04:38:10;;;;;;;;;0.00;0.00;;;;;;;;5032243;28;45522;-81
2021/12/28 04:40:36;;;;;;;;;1.50;0.00;;;;;;;;5031859;28;45284;-82
2021/12/28 04:43:01;;;;;;;;;1.00;0.00;;;;;;;;5034083;28;46481;-80
2021/12/28 04:45:26;;;;;;;;;0.00;0.00;;;;;;;;5032201;28;45419;-81
2021/12/28 04:47:52;;;;;;;;;0.00;0.00;;;;;;;;5035839;28;45438;-79
2021/12/28 04:50:17;;;;;;;;;0.00;0.00;;;;;;;;5033473;28;45582;-80
2021/12/28 04:52:42;;;;;;;;;1.00;0.00;;;;;;;;5033830;28;45497;-80
2021/12/28 04:55:11;;;;;;;;;0.00;0.00;;;;;;;;5033460;28;45651;-82
2021/12/28 04:57:37;;;;;;;;;2.00;0.00;;;;;;;;5034213;28;46005;-81
2021/12/28 05:00:04;;;;;;;;;3.75;0.00;;;;;;;;5034933;28;45438;-81
2021/12/28 05:02:29;;;;;;;;;0.00;0.00;;;;;;;;5035108;28;45497;-81
2021/12/28 05:04:55;;;;;;;;;0.00;0.00;;;;;;;;5033806;28;45442;-81
2021/12/28 05:07:20;;;;;;;;;0.00;0.00;;;;;;;;5034245;28;45433;-81
2021/12/28 05:09:45;;;;;;;;;1.67;0.00;;;;;;;;5033347;28;45480;-81
2021/12/28 05:12:10;;;;;;;;;1.00;0.00;;;;;;;;5032699;28;47185;-81
2021/12/28 05:14:40;;;;;;;;;0.00;0.00;;;;;;;;5034586;28;45848;-81
2021/12/28 05:17:05;;;;;;;;;0.00;0.00;;;;;;;;5033643;28;45657;-81
2021/12/28 05:19:30;;;;;;;;;1.00;0.00;;;;;;;;5033532;28;45801;-82
2021/12/28 05:21:55;;;;;;;;;1.67;0.00;;;;;;;;5032622;28;45531;-81
2021/12/28 05:24:20;;;;;;;;;0.00;0.00;;;;;;;;5033493;28;45700;-81
2021/12/28 05:26:46;;;;;;;;;1.00;0.00;;;;;;;;5034545;28;45572;-81
2021/12/28 05:29:11;;;;;;;;;0.00;0.00;;;;;;;;5034594;28;45508;-80
2021/12/28 05:31:36;;;;;;;;;0.00;0.00;;;;;;;;5031366;28;45427;-81
2021/12/28 05:34:02;;;;;;;;;1.33;0.00;;;;;;;;5032762;28;45546;-81
2021/12/28 05:36:27;;;;;;;;;2.00;0.75;;;;;;;;5032111;28;45521;-81
2021/12/28 05:38:52;;;;;;;;;1.67;0.00;;;;;;;;5035259;28;45342;-81
2021/12/28 05:41:18;;;;;;;;;0.25;0.25;;;;;;;;5033041;28;46992;-81
2021/12/28 05:43:43;;;;;;;;;1.25;0.00;;;;;;;;5027642;28;45464;-81
2021/12/28 05:46:08;;;;;;;;;1.00;1.00;;;;;;;;5027571;28;45457;-81
2021/12/28 05:48:34;;;;;;;;;0.00;0.00;;;;;;;;5033312;28;45479;-81
2021/12/28 05:50:59;;;;;;;;;0.00;0.00;;;;;;;;5035651;28;46127;-81
2021/12/28 05:53:25;;;;;;;;;1.50;0.00;;;;;;;;5031429;28;45604;-81
2021/12/28 05:55:50;;;;;;;;;1.75;0.00;;;;;;;;5032166;28;45657;-81
2021/12/28 05:58:15;;;;;;;;;2.75;0.00;;;;;;;;5026313;28;45512;-80
2021/12/28 06:00:41;;;;;;;;;1.00;0.00;;;;;;;;5027855;28;46063;-82
2021/12/28 06:03:06;;;;;;;;;0.25;0.25;;;;;;;;5033829;28;45804;-83
2021/12/28 06:05:32;;;;;;;;;2.25;0.00;;;;;;;;5033180;28;45578;-82
2021/12/28 06:07:57;;;;;;;;;0.00;0.00;;;;;;;;5032340;28;45579;-82
2021/12/28 06:10:22;;;;;;;;;0.00;0.00;;;;;;;;5030827;28;45346;-82
2021/12/28 06:12:49;;;;;;;;;0.00;0.00;;;;;;;;5030689;28;45623;-81
2021/12/28 06:15:14;;;;;;;;;0.75;0.75;;;;;;;;5031258;28;46284;-82
2021/12/28 06:17:40;;;;;;;;;0.00;0.00;;;;;;;;5033878;28;45513;-82
2021/12/28 06:20:05;;;;;;;;;0.00;0.00;;;;;;;;5026899;28;45794;-82
2021/12/28 06:22:30;;;;;;;;;5.50;0.50;;;;;;;;5026157;28;46065;-81
2021/12/28 06:24:56;;;;;;;;;4.00;0.00;;;;;;;;5027556;28;45571;-81
2021/12/28 06:27:21;;;;;;;;;3.33;0.00;;;;;;;;5025564;28;45737;-81
2021/12/28 06:29:46;;;;;;;;;2.00;0.00;;;;;;;;5030110;28;47065;-82
2021/12/28 06:32:12;;;;;;;;;0.00;0.00;;;;;;;;5031653;28;45566;-81
2021/12/28 06:34:37;;;;;;;;;2.00;0.25;;;;;;;;5032589;28;45589;-82
2021/12/28 06:37:03;;;;;;;;;3.25;0.50;;;;;;;;5031146;28;48607;-81
2021/12/28 06:39:28;;;;;;;;;0.25;0.00;;;;;;;;5031540;28;47108;-81
2021/12/28 06:41:53;;;;;;;;;2.00;1.00;;;;;;;;5032742;28;45512;-81
2021/12/28 06:44:18;;;;;;;;;1.75;0.00;;;;;;;;5030555;28;45417;-82
2021/12/28 06:46:44;;;;;;;;;0.00;0.00;;;;;;;;5031087;28;45623;-82
2021/12/28 06:49:09;;;;;;;;;1.50;0.50;;;;;;;;5031706;28;47730;-82
2021/12/28 06:51:34;;;;;;;;;2.00;0.00;;;;;;;;5030912;28;45525;-81
2021/12/28 06:54:00;;;;;;;;;2.00;0.00;;;;;;;;5033796;28;45292;-81
2021/12/28 06:56:25;;;;;;;;;1.00;1.00;;;;;;;;5029684;28;45394;-81
2021/12/28 06:58:53;;;;;;;;;1.75;1.00;;;;;;;;5031935;28;47510;-81
2021/12/28 07:01:19;;;;;;;;;2.00;1.00;;;;;;;;5031611;28;45893;-81
2021/12/28 07:03:44;;;;;;;;;3.50;1.00;;;;;;;;5031186;28;45710;-81
2021/12/28 07:06:10;;;;;;;;;3.67;0.00;;;;;;;;5030238;28;45506;-81
2021/12/28 07:08:36;;;;;;;;;2.25;0.25;;;;;;;;5032519;28;45632;-80
2021/12/28 07:11:01;;;;;;;;;2.00;1.00;;;;;;;;5031127;28;45900;-81
2021/12/28 07:13:26;;;;;;;;;3.00;1.25;;;;;;;;5031479;28;45523;-82
2021/12/28 07:15:52;;;;;;;;;3.00;2.00;;;;;;;;5026595;28;45756;-82
2021/12/28 07:18:17;;;;;;;;;3.00;1.00;;;;;;;;5026485;28;45633;-81
2021/12/28 07:20:42;;;;;;;;;2.50;0.00;;;;;;;;5026545;28;45889;-80
2021/12/28 07:23:08;;;;;;;;;3.00;1.00;;;;;;;;5026329;28;45601;-81
2021/12/28 07:25:33;;;;;;;;;2.00;1.00;;;;;;;;5028801;28;45915;-82
2021/12/28 07:27:58;;;;;;;;;3.33;0.33;;;;;;;;5019357;28;45544;-83
2021/12/28 07:30:23;;;;;;;;;2.67;0.00;;;;;;;;5031194;28;45838;-82
2021/12/28 07:32:48;;;;;;;;;2.00;1.00;;;;;;;;5033569;28;45510;-80
2021/12/28 07:35:14;;;;;;;;;1.67;1.00;;;;;;;;5030727;28;45844;-80
2021/12/28 07:37:39;;;;;;;;;0.33;0.00;;;;;;;;5031476;28;46393;-83
2021/12/28 07:40:05;;;;;;;;;4.00;2.00;;;;;;;;5030971;28;45430;-82
2021/12/28 07:42:30;;;;;;;;;2.50;0.50;;;;;;;;5030945;28;45371;-82
2021/12/28 07:44:56;;;;;;;;;1.00;0.00;;;;;;;;5033589;28;45514;-82
2021/12/28 07:47:21;;;;;;;;;4.00;1.00;;;;;;;;5030914;28;47100;-82
2021/12/28 07:49:46;;;;;;;;;5.00;0.50;;;;;;;;5028600;28;45694;-81
2021/12/28 07:52:12;;;;;;;;;3.00;0.00;;;;;;;;5029009;28;45518;-81
2021/12/28 07:54:37;;;;;;;;;0.50;0.00;;;;;;;;5030596;28;45604;-81
2021/12/28 07:57:03;;;;;;;;;1.25;0.00;;;;;;;;5026040;28;45562;-81
2021/12/28 07:59:28;;;;;;;;;2.00;0.00;;;;;;;;5029940;28;45577;-81
2021/12/28 08:01:53;;;;;;;;;3.33;1.00;;;;;;;;5031194;28;45673;-83
2021/12/28 08:04:18;;;;;;;;;1.00;1.00;;;;;;;;5030948;28;45494;-80
2021/12/28 08:06:44;;;;;;;;;2.00;1.00;;;;;;;;5022188;28;46726;-68
2021/12/28 08:09:10;;;;;;;;;1.25;1.00;;;;;;;;5026494;28;45467;-67
2021/12/28 08:11:35;;;;;;;;;2.00;0.00;;;;;;;;5031793;28;45500;-67
2021/12/28 08:14:00;;;;;;;;;2.00;0.00;;;;;;;;5032958;28;45537;-68
2021/12/28 08:16:26;;;;;;;;;3.00;0.00;;;;;;;;5029369;28;48600;-72
2021/12/28 08:18:51;;;;;;;;;1.67;0.67;;;;;;;;5031211;28;45693;-67
2021/12/28 08:21:16;;;;;;;;;1.50;0.25;;;;;;;;5030695;28;45671;-81
2021/12/28 08:23:42;;;;;;;;;3.00;0.00;;;;;;;;5045891;28;45372;-80
2021/12/28 08:26:07;;;;;;;;;0.67;0.00;;;;;;;;5029757;28;47535;-80
2021/12/28 08:28:32;;;;;;;;;1.75;1.00;;;;;;;;5025712;28;45484;-80
2021/12/28 08:30:57;;;;;;;;;4.00;0.33;;;;;;;;5029998;28;45379;-80
2021/12/28 08:33:23;;;;;;;;;2.75;1.00;;;;;;;;5028150;28;45624;-81
2021/12/28 08:35:49;;;;;;;;;3.00;0.00;;;;;;;;5029441;28;45561;-81
2021/12/28 08:38:14;;;;;;;;;5.75;0.50;;;;;;;;5028668;28;45525;-82
2021/12/28 08:40:41;;;;;;;;;1.00;0.00;;;;;;;;5027836;28;45626;-81
2021/12/28 08:43:07;;;;;;;;;5.00;1.00;;;;;;;;5026416;28;45581;-81
2021/12/28 08:45:33;;;;;;;;;5.00;0.75;;;;;;;;5027771;28;46177;-81
2021/12/28 08:47:59;;;;;;;;;0.25;0.25;;;;;;;;5027293;28;45738;-81
2021/12/28 08:50:24;;;;;;;;;1.50;0.00;;;;;;;;5029311;28;45770;-81
2021/12/28 08:52:50;;;;;;;;;0.25;0.00;;;;;;;;5028679;28;45644;-81
2021/12/28 08:55:16;;;;;;;;;1.75;0.00;;;;;;;;5027688;28;47412;-81
2021/12/28 08:57:41;;;;;;;;;3.75;1.00;;;;;;;;5042521;28;45968;-81
2021/12/28 09:00:11;;;;;;;;;0.00;0.00;;;;;;;;5027570;28;45549;-81
2021/12/28 09:02:36;;;;;;;;;0.00;0.00;;;;;;;;5028135;28;45530;-82
2021/12/28 09:05:02;;;;;;;;;4.67;0.00;;;;;;;;5028868;28;47663;-82
2021/12/28 09:07:27;;;;;;;;;4.00;1.00;;;;;;;;5030055;28;45712;-81
2021/12/28 09:09:53;;;;;;;;;1.00;1.00;;;;;;;;5031009;28;45491;-81
2021/12/28 09:12:18;;;;;;;;;3.50;0.25;;;;;;;;5024807;28;45657;-82
2021/12/28 09:14:43;;;;;;;;;1.67;0.67;;;;;;;;5027831;28;46657;-79
2021/12/28 09:17:09;;;;;;;;;2.00;1.00;;;;;;;;5030178;28;45412;-81
2021/12/28 09:19:34;;;;;;;;;1.75;0.75;;;;;;;;5032695;28;45412;-85
2021/12/28 09:21:59;;;;;;;;;2.75;0.50;;;;;;;;5023768;28;45997;-79
2021/12/28 09:24:25;;;;;;;;;0.33;0.33;;;;;;;;5033040;28;45493;-80
2021/12/28 09:26:50;;;;;;;;;3.50;2.00;;;;;;;;5033048;28;45610;-79
2021/12/28 09:29:16;;;;;;;;;4.50;0.75;;;;;;;;5031784;28;45657;-80
2021/12/28 09:31:41;;;;;;;;;3.00;1.00;;;;;;;;5030038;28;45939;-80
2021/12/28 09:34:06;;;;;;;;;5.33;3.00;;;;;;;;5029376;28;45982;-81
2021/12/28 09:36:31;;;;;;;;;3.25;1.25;;;;;;;;5023691;28;45616;-81
2021/12/28 09:38:57;;;;;;;;;2.00;1.00;;;;;;;;5032494;28;45583;-80
2021/12/28 09:41:22;;;;;;;;;3.00;0.67;;;;;;;;5029108;28;45377;-80
2021/12/28 09:43:47;;;;;;;;;6.67;2.00;;;;;;;;5030612;28;45796;-81
2021/12/28 09:46:12;;;;;;;;;11.00;2.00;;;;;;;;5023949;28;45496;-81
2021/12/28 09:48:38;;;;;;;;;4.00;2.00;;;;;;;;5027894;28;45550;-80
2021/12/28 09:51:04;;;;;;;;;4.25;2.00;;;;;;;;5020725;28;45677;-80
2021/12/28 09:53:30;;;;;;;;;3.50;1.00;;;;;;;;5019306;28;46452;-80
2021/12/28 09:55:55;;;;;;;;;4.25;2.50;;;;;;;;5017558;28;45755;-80
2021/12/28 09:58:21;;;;;;;;;2.00;1.75;;;;;;;;5021370;28;45514;-80
2021/12/28 10:00:46;;;;;;;;;4.75;3.00;;;;;;;;5018706;28;45331;-80
2021/12/28 10:03:12;;;;;;;;;6.00;2.33;;;;;;;;5021872;28;48464;-80
2021/12/28 10:05:37;;;;;;;;;4.75;2.00;;;;;;;;5029521;28;45704;-79
2021/12/28 10:08:04;;;;;;;;;8.33;3.00;;;;;;;;5029463;28;45470;-80
2021/12/28 10:10:31;;;;;;;;;3.25;1.50;;;;;;;;5022236;28;46622;-80
2021/12/28 10:13:04;;;;;;;;;5.50;2.00;;;;;;;;5017337;28;46036;-80
2021/12/28 10:15:31;;;;;;;;;5.50;2.00;;;;;;;;5028180;28;46320;-80
2021/12/28 10:17:58;;;;;;;;;6.75;2.00;;;;;;;;5018692;28;45514;-80
2021/12/28 10:20:28;;;;;;;;;6.50;2.00;;;;;;;;5019695;28;45471;-80
2021/12/28 10:22:58;;;;;;;;;5.00;2.00;;;;;;;;5017724;28;46182;-80
2021/12/28 10:25:28;;;;;;;;;6.50;3.00;;;;;;;;5023724;28;46044;-80
2021/12/28 10:27:59;;;;;;;;;3.25;2.00;;;;;;;;5023526;28;45499;-80
2021/12/28 10:30:26;;;;;;;;;3.50;2.25;;;;;;;;5029854;28;45664;-80
2021/12/28 10:33:03;;;;;;;;;5.00;2.75;;;;;;;;5032539;28;45537;-80
2021/12/28 10:35:32;;;;;;;;;6.75;2.25;;;;;;;;5029498;28;45860;-81
2021/12/28 10:38:03;;;;;;;;;5.00;2.00;;;;;;;;5025317;28;45458;-81
2021/12/28 10:40:38;;;;;;;;;3.00;2.00;;;;;;;;5030496;28;45713;-81
2021/12/28 10:43:05;;;;;;;;;6.75;3.50;;;;;;;;5029010;28;47630;-82
2021/12/28 10:45:39;;;;;;;;;10.50;2.75;;;;;;;;5023401;28;47307;-81
2021/12/28 10:48:15;;;;;;;;;7.25;2.50;;;;;;;;5032011;28;45557;-81
2021/12/28 10:50:49;;;;;;;;;6.25;2.00;;;;;;;;5032342;28;45655;-81
2021/12/28 10:53:19;;;;;;;;;9.50;4.00;;;;;;;;5027723;28;48043;-80
2021/12/28 10:55:45;;;;;;;;;12.25;3.00;;;;;;;;5030561;28;45639;-80
2021/12/28 10:58:20;;;;;;;;;3.75;2.50;;;;;;;;5030323;28;45474;-82
2021/12/28 11:00:45;;;;;;;;;5.25;3.00;;;;;;;;5023430;28;45634;-80
2021/12/28 11:03:16;;;;;;;;;7.25;3.00;;;;;;;;5027563;28;46282;-80
2021/12/28 11:05:46;;;;;;;;;3.75;2.00;;;;;;;;5029465;28;45442;-80
2021/12/28 11:08:11;;;;;;;;;5.75;2.00;;;;;;;;5025132;28;45491;-80
2021/12/28 11:10:48;;;;;;;;;4.25;1.25;;;;;;;;5025670;28;45506;-80
2021/12/28 11:13:14;;;;;;;;;9.00;5.25;;;;;;;;5028231;28;46376;-80
2021/12/28 11:15:45;;;;;;;;;6.50;2.75;;;;;;;;5027475;28;45743;-80
2021/12/28 11:18:20;;;;;;;;;5.50;2.50;;;;;;;;5028325;28;46110;-81
2021/12/28 11:20:46;;;;;;;;;5.75;2.25;;;;;;;;5026565;28;45673;-82
2021/12/28 11:23:13;;;;;;;;;12.00;2.75;;;;;;;;5019946;28;48488;-80
2021/12/28 11:25:39;;;;;;;;;5.00;2.00;;;;;;;;5020399;28;45708;-80
2021/12/28 11:28:37;;;;;;;;;3.25;3.00;;;;;;;;5026837;28;45533;-81
2021/12/28 11:31:07;;;;;;;;;6.50;2.75;;;;;;;;4931842;28;45821;-81
2021/12/28 11:33:51;;;;;;;;;3.00;2.00;;;;;;;;4945020;28;46884;-81
2021/12/28 11:36:17;;;;;;;;;3.50;1.50;;;;;;;;4948640;28;45896;-84
2021/12/28 11:38:43;;;;;;;;;2.25;1.50;;;;;;;;4924370;28;46585;-83
2021/12/28 11:41:09;;;;;;;;;5.75;1.25;;;;;;;;4948211;28;45717;-84
2021/12/28 11:43:36;;;;;;;;;4.75;0.50;;;;;;;;4925896;28;47653;-81
2021/12/28 11:46:01;;;;;;;;;3.50;1.25;;;;;;;;4933997;28;46379;-83
2021/12/28 11:48:27;;;;;;;;;2.75;0.50;;;;;;;;4946755;28;45565;-83
2021/12/28 11:50:53;;;;;;;;;2.00;1.00;;;;;;;;4948498;28;45721;-86
2021/12/28 11:53:19;;;;;;;;;4.50;1.25;;;;;;;;4925662;28;46112;-89
2021/12/28 11:55:44;;;;;;;;;7.00;1.75;;;;;;;;4946657;28;45829;-87
2021/12/28 11:58:09;;;;;;;;;3.00;1.00;;;;;;;;4945293;28;45967;-87
2021/12/28 12:00:39;;;;;;;;;3.50;1.75;;;;;;;;4923178;28;45478;-88
2021/12/28 12:03:06;;;;;;;;;8.25;2.00;;;;;;;;4936480;28;46956;-83
2021/12/28 12:05:32;;;;;;;;;3.75;1.75;;;;;;;;4938435;28;46287;-83
2021/12/28 12:08:08;;;;;;;;;4.25;1.00;;;;;;;;5016865;28;45592;-83
2021/12/28 12:10:35;;;;;;;;;3.75;1.00;;;;;;;;5019237;28;45696;-83
2021/12/28 12:13:21;;;;;;;;;2.50;2.00;;;;;;;;5035718;28;46078;-84
2021/12/28 12:15:48;;;;;;;;;5.50;1.50;;;;;;;;5016943;28;45664;-83
2021/12/28 12:18:15;;;;;;;;;3.75;2.00;;;;;;;;5016178;28;45389;-82
2021/12/28 12:21:00;;;;;;;;;4.50;2.00;;;;;;;;5016126;28;45794;-83
2021/12/28 12:23:27;;;;;;;;;4.00;1.75;;;;;;;;5029429;28;45879;-83
2021/12/28 12:25:56;;;;;;;;;3.25;1.25;;;;;;;;5030464;28;45971;-83
2021/12/28 12:28:31;;;;;;;;;1.75;1.00;;;;;;;;5030483;28;45546;-83
2021/12/28 12:30:57;;;;;;;;;1.50;0.75;;;;;;;;5028656;28;45711;-83
2021/12/28 12:33:32;;;;;;;;;2.25;1.50;;;;;;;;5027921;28;47421;-83
2021/12/28 12:35:58;;;;;;;;;5.00;1.00;;;;;;;;5026612;28;45786;-84
2021/12/28 12:38:26;;;;;;;;;3.75;1.50;;;;;;;;5025565;28;45422;-83
2021/12/28 12:40:58;;;;;;;;;4.00;1.00;;;;;;;;5030691;28;45485;-80
2021/12/28 12:43:25;;;;;;;;;1.50;0.75;;;;;;;;5015078;28;45991;-81
2021/12/28 12:45:50;;;;;;;;;3.00;1.00;;;;;;;;5024805;28;46072;-82
2021/12/28 12:48:35;;;;;;;;;2.33;1.00;;;;;;;;5034786;28;45528;-82
2021/12/28 12:51:19;;;;;;;;;2.00;0.25;;;;;;;;5026573;28;45588;-80
2021/12/28 12:53:45;;;;;;;;;3.50;1.75;;;;;;;;5031808;28;48163;-80
2021/12/28 12:56:14;;;;;;;;;8.00;1.75;;;;;;;;5019955;28;45868;-80
2021/12/28 12:58:44;;;;;;;;;4.75;2.00;;;;;;;;5032481;28;45736;-82
2021/12/28 13:01:18;;;;;;;;;4.00;1.00;;;;;;;;5029138;28;45617;-82
2021/12/28 13:03:43;;;;;;;;;3.00;1.50;;;;;;;;5022651;28;45599;-82
2021/12/28 13:06:08;;;;;;;;;2.00;2.00;;;;;;;;5033550;28;45566;-83
2021/12/28 13:08:34;;;;;;;;;5.33;2.00;;;;;;;;5033998;28;45481;-83
2021/12/28 13:10:59;;;;;;;;;3.33;1.67;;;;;;;;5030865;28;45966;-82
2021/12/28 13:13:24;;;;;;;;;5.00;1.00;;;;;;;;5027515;28;46531;-83
2021/12/28 13:15:49;;;;;;;;;2.00;2.00;;;;;;;;5030522;28;45723;-82
2021/12/28 13:18:14;;;;;;;;;3.67;2.00;;;;;;;;5031287;28;45690;-82
2021/12/28 13:20:40;;;;;;;;;2.00;1.00;;;;;;;;5019815;28;45746;-81
2021/12/28 13:23:07;;;;;;;;;5.33;1.33;;;;;;;;5028665;28;46470;-81
2021/12/28 13:25:37;;;;;;;;;1.25;1.00;;;;;;;;5029069;28;45953;-85
2021/12/28 13:28:05;;;;;;;;;3.00;0.75;;;;;;;;5029166;28;45783;-82
2021/12/28 13:30:34;;;;;;;;;4.00;2.25;;;;;;;;5028653;28;45581;-83
2021/12/28 13:32:59;;;;;;;;;7.75;1.25;;;;;;;;5029165;28;48346;-83
2021/12/28 13:35:26;;;;;;;;;5.00;1.00;;;;;;;;5028679;28;45537;-83
2021/12/28 13:38:02;;;;;;;;;4.50;0.75;;;;;;;;5028267;28;45561;-83
2021/12/28 13:40:38;;;;;;;;;1.25;0.75;;;;;;;;5027742;28;45749;-83
2021/12/28 13:43:08;;;;;;;;;1.50;1.50;;;;;;;;5033389;28;47628;-82
2021/12/28 13:45:38;;;;;;;;;4.00;1.00;;;;;;;;5027359;28;45387;-83
2021/12/28 13:48:10;;;;;;;;;3.00;1.75;;;;;;;;5032591;28;45624;-82
2021/12/28 13:50:35;;;;;;;;;2.75;0.00;;;;;;;;5030375;28;45804;-81
2021/12/28 13:53:01;;;;;;;;;3.00;1.00;;;;;;;;5028978;28;45806;-82
2021/12/28 13:55:30;;;;;;;;;4.67;1.33;;;;;;;;5031065;28;45455;-81
2021/12/28 13:57:57;;;;;;;;;6.25;1.75;;;;;;;;5032693;28;45807;-82
2021/12/28 14:00:23;;;;;;;;;4.00;0.50;;;;;;;;5014818;28;45438;-82
2021/12/28 14:03:07;;;;;;;;;2.50;0.75;;;;;;;;5019302;28;46301;-82
2021/12/28 14:05:34;;;;;;;;;2.00;0.75;;;;;;;;5041503;28;45741;-82
2021/12/28 14:08:00;;;;;;;;;7.00;1.00;;;;;;;;5019162;28;45530;-83
2021/12/28 14:10:29;;;;;;;;;4.00;1.00;;;;;;;;5019656;28;47465;-83
2021/12/28 14:13:07;;;;;;;;;0.25;0.00;;;;;;;;5017714;28;48705;-83
2021/12/28 14:15:45;;;;;;;;;4.00;0.25;;;;;;;;5013393;28;45771;-83
2021/12/28 14:18:25;;;;;;;;;1.25;0.00;;;;;;;;5015427;28;45503;-82
2021/12/28 14:20:51;;;;;;;;;1.75;0.50;;;;;;;;5018349;28;45706;-83
2021/12/28 14:23:26;;;;;;;;;3.75;0.75;;;;;;;;5018433;28;45653;-83
2021/12/28 14:26:01;;;;;;;;;3.50;1.00;;;;;;;;5017432;28;45749;-82
2021/12/28 14:28:26;;;;;;;;;1.25;0.00;;;;;;;;5031573;28;45541;-83
2021/12/28 14:31:07;;;;;;;;;3.33;0.00;;;;;;;;5030588;28;45632;-82
2021/12/28 14:33:43;;;;;;;;;3.00;1.00;;;;;;;;5015028;28;45408;-83
2021/12/28 14:36:08;;;;;;;;;3.75;1.00;;;;;;;;5027093;28;48571;-82
2021/12/28 14:38:33;;;;;;;;;2.50;0.00;;;;;;;;5020071;28;45572;-82
2021/12/28 14:40:59;;;;;;;;;1.00;1.00;;;;;;;;5018551;28;45586;-83
2021/12/28 14:43:28;;;;;;;;;2.00;1.00;;;;;;;;5018018;28;45500;-83